Time;durP1;ratioP1;P1;durP2;ratioP2;P2;SDS_P1;SDS_P2;PMS_P1;PMS_P2;Temp;Humidity;BMP_temperature;BMP_pressure;BME280_temperature;BME280_humidity;BME280_pressure;Samples;Min_cycle;Max_cycle;Signal;HPM_P1;HPM_P2
2021/01/19 00:00:42;;;;;;;10.43;5.85;;;;;;;4.07;79.35;100919.16;4921072;29;20036;-81
2021/01/19 00:03:08;;;;;;;11.63;6.20;;;;;;;4.08;79.88;100911.25;4943666;28;20123;-80
2021/01/19 00:05:34;;;;;;;10.07;5.35;;;;;;;4.07;79.09;100903.41;4946993;29;20130;-83
2021/01/19 00:08:00;;;;;;;11.25;5.72;;;;;;;4.10;79.11;100909.47;4918162;29;20063;-80
2021/01/19 00:10:27;;;;;;;9.60;5.13;;;;;;;4.16;79.40;100900.66;4935650;29;20056;-81
2021/01/19 00:12:53;;;;;;;9.23;5.20;;;;;;;4.18;78.43;100897.16;4934629;29;20052;-80
2021/01/19 00:15:20;;;;;;;12.77;5.40;;;;;;;4.26;77.93;100904.91;4935367;29;20063;-80
2021/01/19 00:17:46;;;;;;;13.43;5.10;;;;;;;4.25;78.30;100900.53;4914913;29;20082;-80
2021/01/19 00:20:13;;;;;;;13.35;4.97;;;;;;;4.21;78.25;100891.88;4930913;29;20048;-81
2021/01/19 00:22:39;;;;;;;10.95;5.28;;;;;;;4.23;78.02;100894.47;4930722;29;20124;-83
2021/01/19 00:25:06;;;;;;;8.80;4.80;;;;;;;4.26;78.04;100904.91;4904071;29;20044;-81
2021/01/19 00:27:33;;;;;;;9.82;4.78;;;;;;;4.23;78.43;100894.47;4925681;29;20075;-80
2021/01/19 00:29:59;;;;;;;11.68;5.15;;;;;;;4.24;78.02;100893.59;4926243;29;20056;-81
2021/01/19 00:32:26;;;;;;;10.90;5.07;;;;;;;4.22;78.14;100895.34;4927009;29;20244;-80
2021/01/19 00:34:52;;;;;;;7.70;4.75;;;;;;;4.23;78.21;100889.22;4926775;29;20056;-82
2021/01/19 00:37:19;;;;;;;13.52;5.88;;;;;;;4.26;77.83;100881.31;4923876;29;21762;-82
2021/01/19 00:39:46;;;;;;;7.80;4.82;;;;;;;4.22;77.45;100883.13;4904779;29;20489;-81
2021/01/19 00:42:15;;;;;;;11.82;4.68;;;;;;;4.25;77.83;100876.09;4918629;29;20067;-82
2021/01/19 00:44:42;;;;;;;11.77;5.00;;;;;;;4.20;77.49;100874.41;4921709;29;20058;-81
2021/01/19 00:47:08;;;;;;;8.80;4.25;;;;;;;4.18;77.82;100870.06;4928427;29;20048;-81
2021/01/19 00:49:34;;;;;;;9.52;4.90;;;;;;;4.20;77.08;100863.06;4926446;29;20058;-80
2021/01/19 00:52:01;;;;;;;9.50;5.00;;;;;;;4.16;77.65;100861.34;4918582;29;20038;-81
2021/01/19 00:54:29;;;;;;;12.60;5.38;;;;;;;4.12;77.80;100857.03;4934932;29;20028;-81
2021/01/19 00:56:55;;;;;;;12.60;5.13;;;;;;;4.10;77.73;100854.44;4936228;29;20032;-81
2021/01/19 00:59:22;;;;;;;9.95;4.80;;;;;;;4.01;77.23;100857.19;4940053;29;20048;-81
2021/01/19 01:01:49;;;;;;;12.10;4.97;;;;;;;3.97;78.49;100852.84;4942631;29;20645;-81
2021/01/19 01:04:16;;;;;;;8.90;5.18;;;;;;;3.91;77.98;100846.84;4938900;28;20051;-81
2021/01/19 01:06:43;;;;;;;9.77;4.60;;;;;;;3.82;78.49;100851.31;4918136;29;20163;-81
2021/01/19 01:09:09;;;;;;;10.70;5.07;;;;;;;3.80;78.54;100852.19;4925962;29;20056;-81
2021/01/19 01:11:42;;;;;;;10.52;5.30;;;;;;;3.73;79.01;100842.69;4930481;29;20058;-81
2021/01/19 01:14:08;;;;;;;12.93;5.38;;;;;;;3.69;77.98;100851.47;4939571;29;20036;-81
2021/01/19 01:16:36;;;;;;;9.93;5.00;;;;;;;3.65;78.25;100844.53;4928711;29;20044;-81
2021/01/19 01:19:06;;;;;;;12.75;5.38;;;;;;;3.62;78.14;100840.19;4923665;29;20533;-81
2021/01/19 01:21:38;;;;;;;11.00;5.50;;;;;;;3.58;79.27;100835.88;4930061;29;20043;-81
2021/01/19 01:24:06;;;;;;;9.40;5.50;;;;;;;3.58;78.59;100833.28;4936087;29;20103;-81
2021/01/19 01:26:35;;;;;;;11.13;5.00;;;;;;;3.59;78.35;100837.63;4935781;29;20056;-82
2021/01/19 01:29:03;;;;;;;9.63;5.50;;;;;;;3.60;77.92;100828.88;4905941;29;20051;-81
2021/01/19 01:31:30;;;;;;;11.77;5.28;;;;;;;3.59;78.50;100836.75;4919720;29;20060;-81
2021/01/19 01:33:58;;;;;;;10.93;5.95;;;;;;;3.57;78.01;100831.53;4905087;29;20111;-82
2021/01/19 01:36:25;;;;;;;10.25;4.80;;;;;;;3.58;78.85;100838.50;4922522;29;20113;-82
2021/01/19 01:38:51;;;;;;;10.38;5.55;;;;;;;3.57;78.38;100834.16;4922571;29;20079;-80
2021/01/19 01:41:23;;;;;;;8.45;4.85;;;;;;;3.55;79.35;100840.28;4922313;29;20063;-82
2021/01/19 01:43:50;;;;;;;12.30;4.93;;;;;;;3.49;78.57;100826.38;4922386;29;20481;-83
2021/01/19 01:46:17;;;;;;;9.82;4.70;;;;;;;3.52;78.57;100835.94;4926258;29;20063;-81
2021/01/19 01:48:47;;;;;;;10.48;5.18;;;;;;;3.52;78.31;100830.72;4915956;29;20083;-81
2021/01/19 01:51:14;;;;;;;10.95;4.82;;;;;;;3.50;78.03;100835.09;4922189;29;20062;-82
2021/01/19 01:53:41;;;;;;;10.80;4.82;;;;;;;3.50;78.41;100832.47;4934957;29;20054;-82
2021/01/19 01:56:11;;;;;;;12.45;5.13;;;;;;;3.48;77.94;100831.63;4921614;29;20048;-82
2021/01/19 01:58:38;;;;;;;12.48;4.63;;;;;;;3.48;77.81;100836.84;4924210;29;20076;-82
2021/01/19 02:01:05;;;;;;;8.50;4.45;;;;;;;3.42;77.47;100836.94;4921696;29;20048;-82
2021/01/19 02:03:32;;;;;;;10.48;4.30;;;;;;;3.40;77.74;100836.97;4908726;29;21050;-82
2021/01/19 02:05:59;;;;;;;9.38;4.00;;;;;;;3.36;78.11;100824.78;4933747;29;20099;-83
2021/01/19 02:09:03;;;;;;;8.40;4.03;;;;;;;3.38;77.31;100823.00;4917247;29;20075;-82
2021/01/19 02:11:41;;;;;;;8.75;4.38;;;;;;;3.38;78.35;100822.16;4931524;29;20074;-82
2021/01/19 02:14:26;;;;;;;10.20;4.72;;;;;;;3.41;77.92;100822.13;4938700;29;20040;-82
2021/01/19 02:16:52;;;;;;;8.35;4.15;;;;;;;3.41;77.79;100820.38;4924991;29;20047;-81
2021/01/19 02:20:03;;;;;;;7.63;3.83;;;;;;;3.51;77.30;100808.03;4926092;29;20055;-82
2021/01/19 02:22:48;;;;;;;8.02;4.28;;;;;;;3.51;76.96;100814.13;4921611;29;20066;-82
2021/01/19 02:25:51;;;;;;;10.80;4.13;;;;;;;3.58;76.77;100816.69;4926746;29;20437;-82
2021/01/19 02:28:42;;;;;;;7.18;3.67;;;;;;;3.52;76.88;100810.63;4926039;29;20056;-83
2021/01/19 02:31:22;;;;;;;9.02;3.88;;;;;;;3.53;76.55;100807.13;4921556;29;20040;-82
2021/01/19 02:33:57;;;;;;;8.48;4.10;;;;;;;3.51;76.68;100801.03;4919865;29;20041;-83
2021/01/19 02:36:49;;;;;;;8.27;3.90;;;;;;;3.48;76.89;100784.50;4926418;29;20036;-83
2021/01/19 02:39:28;;;;;;;6.47;3.50;;;;;;;3.46;76.81;100776.66;4920046;29;20054;-83
2021/01/19 02:41:56;;;;;;;5.75;3.53;;;;;;;3.47;76.87;100777.53;4935850;29;20043;-83
2021/01/19 02:44:26;;;;;;;7.40;3.67;;;;;;;3.53;76.69;100775.72;4932970;29;20054;-82
2021/01/19 02:46:54;;;;;;;6.10;2.78;;;;;;;3.54;76.21;100784.44;4917722;29;20053;-83
2021/01/19 02:49:21;;;;;;;5.10;3.08;;;;;;;3.50;76.11;100775.75;4922079;29;20047;-83
2021/01/19 02:52:00;;;;;;;8.88;3.78;;;;;;;3.50;75.83;100772.25;4935384;29;20111;-83
2021/01/19 02:54:28;;;;;;;5.10;3.25;;;;;;;3.50;76.20;100770.50;4922421;29;20059;-83
2021/01/19 02:57:03;;;;;;;8.23;3.55;;;;;;;3.47;76.02;100767.03;4935791;29;20052;-82
2021/01/19 02:59:51;;;;;;;9.55;3.60;;;;;;;3.48;75.98;100760.94;4937308;29;20056;-82
2021/01/19 03:02:24;;;;;;;7.38;3.33;;;;;;;3.49;76.26;100752.19;4921366;29;20047;-83
2021/01/19 03:04:52;;;;;;;8.73;3.50;;;;;;;3.59;75.71;100758.19;4921280;29;20585;-82
2021/01/19 03:07:21;;;;;;;10.80;3.72;;;;;;;3.59;76.19;100758.19;4921404;29;20059;-81
2021/01/19 03:09:49;;;;;;;7.75;3.50;;;;;;;3.63;75.61;100752.88;4919843;29;20054;-82
2021/01/19 03:12:16;;;;;;;7.00;3.53;;;;;;;3.58;75.68;100743.38;4919804;29;20044;-82
2021/01/19 03:14:43;;;;;;;10.43;3.42;;;;;;;3.58;75.60;100741.63;4924114;29;20064;-82
2021/01/19 03:17:12;;;;;;;7.18;3.72;;;;;;;3.54;75.44;100739.91;4917496;29;20068;-82
2021/01/19 03:19:41;;;;;;;9.75;3.55;;;;;;;3.50;75.42;100735.59;4918682;29;20322;-82
2021/01/19 03:22:09;;;;;;;7.82;3.40;;;;;;;3.47;75.81;100733.00;4920601;29;20490;-82
2021/01/19 03:24:37;;;;;;;6.82;3.40;;;;;;;3.47;75.86;100727.78;4918314;29;20052;-82
2021/01/19 03:27:05;;;;;;;7.60;3.42;;;;;;;3.47;75.68;100717.31;4904505;29;20039;-82
2021/01/19 03:29:31;;;;;;;8.18;3.90;;;;;;;3.47;75.49;100712.06;4917925;29;20087;-82
2021/01/19 03:31:58;;;;;;;10.38;3.95;;;;;;;3.45;75.98;100704.25;4916183;29;20056;-81
2021/01/19 03:34:26;;;;;;;6.75;3.50;;;;;;;3.44;75.70;100706.91;4916678;29;20060;-82
2021/01/19 03:36:52;;;;;;;8.85;3.03;;;;;;;3.46;75.48;100705.13;4902990;29;20068;-82
2021/01/19 03:39:19;;;;;;;5.85;3.75;;;;;;;3.48;75.14;100709.44;4924089;29;20055;-82
2021/01/19 03:41:45;;;;;;;6.82;3.80;;;;;;;3.44;74.84;100699.03;4905816;29;20052;-82
2021/01/19 03:44:12;;;;;;;8.38;4.30;;;;;;;3.44;74.34;100709.50;4938879;29;20116;-82
2021/01/19 03:46:38;;;;;;;7.32;4.00;;;;;;;3.41;75.02;100705.19;4926114;29;20041;-82
2021/01/19 03:49:05;;;;;;;8.70;4.07;;;;;;;3.44;74.42;100688.56;4922408;29;20531;-82
2021/01/19 03:51:32;;;;;;;7.90;4.15;;;;;;;3.44;74.57;100685.94;4924087;29;20481;-82
2021/01/19 03:53:59;;;;;;;9.38;4.10;;;;;;;3.45;74.97;100685.06;4923508;29;20059;-82
2021/01/19 03:56:25;;;;;;;13.57;4.55;;;;;;;3.45;74.93;100687.69;4934673;29;20052;-82
2021/01/19 03:58:51;;;;;;;8.10;3.95;;;;;;;3.43;75.27;100686.84;4937105;29;20062;-82
2021/01/19 04:01:18;;;;;;;8.40;4.45;;;;;;;3.44;74.73;100691.19;4919226;29;20075;-82
2021/01/19 04:03:44;;;;;;;10.73;4.35;;;;;;;3.45;74.81;100678.09;4924352;29;20360;-83
2021/01/19 04:06:11;;;;;;;7.50;4.80;;;;;;;3.45;75.74;100661.50;4924317;29;20064;-82
2021/01/19 04:08:38;;;;;;;9.20;4.65;;;;;;;3.45;74.71;100666.75;4904385;29;20140;-82
2021/01/19 04:11:06;;;;;;;9.38;5.00;;;;;;;3.47;74.70;100664.94;4927081;29;20101;-83
2021/01/19 04:13:33;;;;;;;8.68;4.53;;;;;;;3.48;74.01;100654.44;4924962;29;20059;-82
2021/01/19 04:16:00;;;;;;;9.27;5.53;;;;;;;3.44;75.19;100657.16;4928832;29;20070;-82
2021/01/19 04:18:27;;;;;;;12.23;5.68;;;;;;;3.44;75.20;100655.41;4922613;29;20051;-82
2021/01/19 04:20:53;;;;;;;10.48;5.75;;;;;;;3.42;74.56;100648.47;4918332;29;20573;-82
2021/01/19 04:23:20;;;;;;;9.20;5.50;;;;;;;3.37;75.14;100629.31;4917823;29;20663;-82
2021/01/19 04:25:48;;;;;;;13.20;5.78;;;;;;;3.35;75.52;100638.94;4921756;29;20060;-82
2021/01/19 04:28:15;;;;;;;11.73;6.07;;;;;;;3.31;74.68;100632.00;4921970;29;20054;-82
2021/01/19 04:30:44;;;;;;;9.45;5.57;;;;;;;3.34;74.90;100635.47;4921715;29;20055;-82
2021/01/19 04:33:14;;;;;;;10.52;5.45;;;;;;;3.34;75.27;100617.13;4918153;29;20059;-82
2021/01/19 04:35:44;;;;;;;11.52;5.53;;;;;;;3.32;74.76;100625.88;4908253;29;20080;-82
2021/01/19 04:38:10;;;;;;;12.02;6.30;;;;;;;3.30;75.29;100620.69;4924147;29;20044;-82
2021/01/19 04:40:37;;;;;;;11.05;5.63;;;;;;;3.27;75.83;100619.88;4922343;29;20215;-82
2021/01/19 04:43:04;;;;;;;11.23;5.88;;;;;;;3.25;75.54;100616.41;4921673;29;20056;-82
2021/01/19 04:45:32;;;;;;;10.07;5.45;;;;;;;3.23;75.48;100607.72;4905493;29;20048;-82
2021/01/19 04:48:02;;;;;;;10.73;5.28;;;;;;;3.25;75.23;100616.41;4923354;29;20064;-82
2021/01/19 04:50:29;;;;;;;9.57;5.30;;;;;;;3.25;75.20;100611.16;4920961;29;20474;-83
2021/01/19 04:52:59;;;;;;;10.32;5.38;;;;;;;3.29;74.48;100597.16;4925735;29;20104;-82
2021/01/19 04:55:27;;;;;;;9.80;4.95;;;;;;;3.31;74.86;100592.75;4929068;29;20913;-83
2021/01/19 04:58:19;;;;;;;9.30;5.30;;;;;;;3.30;74.41;100589.28;4935700;29;20108;-83
2021/01/19 05:01:08;;;;;;;9.98;5.18;;;;;;;3.32;74.44;100581.38;4925389;29;20059;-83
2021/01/19 05:03:41;;;;;;;13.02;5.30;;;;;;;3.31;74.62;100575.28;4925765;29;20071;-82
2021/01/19 05:06:49;;;;;;;9.60;5.03;;;;;;;3.26;75.01;100565.78;4908310;29;20123;-82
2021/01/19 05:09:21;;;;;;;10.15;4.75;;;;;;;3.25;74.90;100561.44;4916101;29;20115;-82
2021/01/19 05:11:52;;;;;;;9.77;4.97;;;;;;;3.28;75.26;100553.56;4922235;29;20064;-82
2021/01/19 05:14:20;;;;;;;8.70;4.68;;;;;;;3.24;74.83;100542.25;4935141;29;20051;-82
2021/01/19 05:16:50;;;;;;;10.38;5.05;;;;;;;3.25;74.83;100543.13;4933000;29;20224;-82
2021/01/19 05:19:21;;;;;;;12.32;5.20;;;;;;;3.28;75.23;100540.47;4919891;29;20129;-82
2021/01/19 05:21:48;;;;;;;10.15;4.90;;;;;;;3.29;74.90;100529.13;4932795;29;20103;-81
2021/01/19 05:24:15;;;;;;;10.52;5.13;;;;;;;3.27;74.75;100526.53;4922858;29;20043;-81
2021/01/19 05:26:42;;;;;;;12.30;5.30;;;;;;;3.25;74.50;100533.53;4922994;29;20485;-81
2021/01/19 05:29:08;;;;;;;11.23;5.18;;;;;;;3.21;74.97;100518.75;4907189;29;20122;-82
2021/01/19 05:31:35;;;;;;;10.43;5.10;;;;;;;3.20;74.48;100511.78;4909016;29;20056;-82
2021/01/19 05:34:05;;;;;;;10.15;5.80;;;;;;;3.13;75.00;100507.56;4932606;29;20082;-83
2021/01/19 05:36:45;;;;;;;10.05;4.97;;;;;;;3.14;75.55;100520.63;4935658;29;20142;-82
2021/01/19 05:39:16;;;;;;;12.45;5.25;;;;;;;3.11;75.06;100504.94;4946372;29;20052;-82
2021/01/19 05:41:47;;;;;;;10.43;5.50;;;;;;;3.12;74.26;100506.69;4926414;29;20306;-81
2021/01/19 05:44:13;;;;;;;9.85;5.32;;;;;;;3.10;75.56;100507.59;4908332;29;20044;-82
2021/01/19 05:46:50;;;;;;;8.32;4.95;;;;;;;3.09;74.53;100501.50;4928047;29;20048;-82
2021/01/19 05:49:24;;;;;;;10.40;4.80;;;;;;;3.11;75.58;100499.72;4912922;29;20079;-82
2021/01/19 05:52:15;;;;;;;10.48;5.30;;;;;;;3.12;74.75;100491.00;4930357;29;20492;-82
2021/01/19 05:54:49;;;;;;;9.95;5.22;;;;;;;3.14;74.52;100486.59;4927114;29;20059;-82
2021/01/19 05:57:20;;;;;;;10.63;5.22;;;;;;;3.12;75.06;100484.88;4929655;29;20059;-82
2021/01/19 05:59:51;;;;;;;;;;;;;;;3.10;74.91;100482.28;4931741;29;20059;-82
2021/01/19 06:02:19;;;;;;;9.00;5.13;;;;;;;3.05;75.00;100472.78;4953708;29;19953;-81
2021/01/19 06:04:48;;;;;;;9.98;5.40;;;;;;;3.12;74.86;100482.28;4918505;29;20051;-83
2021/01/19 06:07:21;;;;;;;9.27;5.10;;;;;;;3.15;74.97;100477.84;4937799;28;20409;-83
2021/01/19 06:09:48;;;;;;;10.63;5.40;;;;;;;3.20;74.53;100472.53;4922670;29;20032;-83
2021/01/19 06:12:16;;;;;;;11.00;5.20;;;;;;;3.20;74.75;100474.28;4920554;29;20107;-83
2021/01/19 06:14:50;;;;;;;9.93;5.45;;;;;;;3.19;74.45;100462.94;4944117;29;20057;-83
2021/01/19 06:17:21;;;;;;;8.02;4.57;;;;;;;3.18;74.27;100456.84;4921819;29;20051;-82
2021/01/19 06:20:08;;;;;;;10.23;5.75;;;;;;;3.16;75.20;100456.00;4931983;29;20052;-83
2021/01/19 06:22:35;;;;;;;11.00;5.10;;;;;;;3.16;74.69;100447.31;4920021;29;20040;-82
2021/01/19 06:25:04;;;;;;;10.38;4.90;;;;;;;3.23;74.08;100455.94;4934949;29;20064;-83
2021/01/19 06:27:33;;;;;;;9.95;5.00;;;;;;;3.23;74.41;100455.94;4933823;29;20046;-83
2021/01/19 06:29:59;;;;;;;8.57;4.15;;;;;;;3.22;74.87;100454.19;4935115;29;20546;-83
2021/01/19 06:32:30;;;;;;;10.93;5.50;;;;;;;3.22;74.60;100443.72;4927305;29;20056;-83
2021/01/19 06:35:11;;;;;;;9.15;4.55;;;;;;;3.31;73.94;100454.03;4905346;29;20063;-82
2021/01/19 06:37:38;;;;;;;9.13;4.57;;;;;;;3.36;73.89;100446.97;4929058;29;20052;-83
2021/01/19 06:40:07;;;;;;;10.07;5.07;;;;;;;3.31;73.97;100438.31;4920302;29;20052;-82
2021/01/19 06:42:35;;;;;;;11.15;4.97;;;;;;;3.25;74.30;100438.44;4938905;29;20094;-82
2021/01/19 06:45:07;;;;;;;10.23;4.85;;;;;;;3.28;74.43;100430.56;4926825;29;20040;-83
2021/01/19 06:47:56;;;;;;;12.77;4.95;;;;;;;3.24;74.16;100436.72;4921248;29;20496;-82
2021/01/19 06:50:25;;;;;;;9.18;4.90;;;;;;;3.22;74.25;100420.19;4923731;29;20056;-82
2021/01/19 06:53:14;;;;;;;9.95;5.28;;;;;;;3.24;74.34;100426.25;4920984;29;20055;-81
2021/01/19 06:55:49;;;;;;;11.15;5.15;;;;;;;3.24;74.33;100421.88;4921741;29;20150;-80
2021/01/19 06:58:28;;;;;;;10.80;4.72;;;;;;;3.28;73.91;100418.34;4917811;29;20040;-81
2021/01/19 07:01:00;;;;;;;11.05;5.25;;;;;;;3.26;74.32;100419.25;4922124;29;20078;-81
2021/01/19 07:03:37;;;;;;;10.48;5.57;;;;;;;3.23;74.28;100424.53;4896699;29;20402;-81
2021/01/19 07:06:06;;;;;;;11.77;5.00;;;;;;;3.28;74.17;100412.25;4919013;29;20477;-81
2021/01/19 07:08:56;;;;;;;9.23;4.65;;;;;;;3.32;74.09;100414.75;4900510;29;20103;-81
2021/01/19 07:12:02;;;;;;;11.43;5.07;;;;;;;3.32;74.26;100412.13;4901173;29;20144;-82
2021/01/19 07:14:40;;;;;;;9.68;4.78;;;;;;;3.36;74.06;100407.72;4924137;29;20123;-82
2021/01/19 07:17:25;;;;;;;11.30;4.88;;;;;;;3.31;73.76;100393.84;4922721;29;20044;-81
2021/01/19 07:19:57;;;;;;;11.55;4.88;;;;;;;3.36;73.55;100403.34;4932141;29;20052;-80
2021/01/19 07:22:26;;;;;;;8.98;4.80;;;;;;;3.34;74.20;100397.28;4933995;29;20052;-81
2021/01/19 07:24:54;;;;;;;8.55;4.82;;;;;;;3.32;74.34;100393.81;4924540;29;20052;-81
2021/01/19 07:27:24;;;;;;;10.10;4.55;;;;;;;3.24;74.01;100371.31;4925820;29;20059;-82
2021/01/19 07:29:54;;;;;;;11.40;4.65;;;;;;;3.35;74.50;100378.06;4926105;29;20040;-82
2021/01/19 07:32:27;;;;;;;8.55;4.50;;;;;;;3.37;74.48;100383.28;4932751;29;20116;-82
2021/01/19 07:34:54;;;;;;;12.93;5.32;;;;;;;3.38;74.71;100382.38;4940319;29;20052;-82
2021/01/19 07:37:36;;;;;;;6.90;4.32;;;;;;;3.36;74.25;100368.47;4932928;29;20048;-82
2021/01/19 07:40:16;;;;;;;11.60;4.78;;;;;;;3.40;74.20;100373.63;4935644;29;20052;-81
2021/01/19 07:42:44;;;;;;;10.23;4.90;;;;;;;3.40;74.40;100375.38;4927086;29;20055;-78
2021/01/19 07:45:12;;;;;;;11.85;5.05;;;;;;;3.40;73.95;100365.75;4928550;29;20503;-80
2021/01/19 07:47:42;;;;;;;8.48;4.85;;;;;;;3.40;74.11;100360.53;4929947;29;20087;-80
2021/01/19 07:50:17;;;;;;;8.18;4.70;;;;;;;3.39;74.42;100358.81;4919643;29;20052;-78
2021/01/19 07:52:46;;;;;;;9.40;4.72;;;;;;;3.34;75.00;100344.06;4930725;29;20055;-80
2021/01/19 07:55:23;;;;;;;11.70;5.00;;;;;;;3.28;75.09;100346.81;4935850;29;20220;-80
2021/01/19 07:57:54;;;;;;;10.60;4.93;;;;;;;3.36;74.95;100342.28;4934026;29;20050;-83
2021/01/19 08:00:27;;;;;;;9.93;5.07;;;;;;;3.38;74.54;100341.38;4935636;29;20056;-84
2021/01/19 08:03:05;;;;;;;10.63;4.93;;;;;;;3.37;74.91;100349.25;4931359;29;20139;-81
2021/01/19 08:05:35;;;;;;;8.32;4.93;;;;;;;3.32;76.03;100338.00;4907462;29;20374;-82
2021/01/19 08:08:17;;;;;;;9.30;4.53;;;;;;;3.30;76.45;100340.66;4937043;29;20056;-81
2021/01/19 08:10:57;;;;;;;11.15;4.72;;;;;;;3.30;75.86;100347.66;4927983;29;20141;-82
2021/01/19 08:13:25;;;;;;;10.48;4.57;;;;;;;3.25;75.53;100341.63;4928614;29;20139;-81
2021/01/19 08:16:07;;;;;;;7.80;4.63;;;;;;;3.17;76.92;100340.00;4915416;29;20068;-82
2021/01/19 08:18:42;;;;;;;11.35;5.40;;;;;;;3.20;77.24;100335.59;4941654;28;20036;-82
2021/01/19 08:21:11;;;;;;;12.90;5.30;;;;;;;3.17;77.23;100326.91;4936052;28;20063;-83
2021/01/19 08:23:39;;;;;;;11.68;4.97;;;;;;;3.14;77.46;100324.38;4921545;29;20040;-85
2021/01/19 08:26:08;;;;;;;10.50;5.32;;;;;;;3.17;78.33;100326.03;4938715;29;20056;-84
2021/01/19 08:28:37;;;;;;;8.25;4.68;;;;;;;3.14;78.63;100310.44;4918197;29;20056;-83
2021/01/19 08:31:15;;;;;;;10.25;5.03;;;;;;;3.17;78.78;100315.59;4918951;29;20062;-83
2021/01/19 08:33:42;;;;;;;9.40;5.05;;;;;;;3.06;79.01;100302.69;4938409;29;20077;-82
2021/01/19 08:36:10;;;;;;;10.02;5.13;;;;;;;3.07;79.43;100314.03;4934373;29;20054;-84
2021/01/19 08:38:40;;;;;;;12.60;5.53;;;;;;;3.05;79.22;100310.56;4933999;29;20417;-83
2021/01/19 08:41:15;;;;;;;11.25;5.57;;;;;;;2.97;79.74;100308.13;4934640;29;20044;-83
2021/01/19 08:44:05;;;;;;;9.48;4.88;;;;;;;3.02;79.90;100302.78;4931866;29;20059;-84
2021/01/19 08:46:33;;;;;;;12.95;5.13;;;;;;;2.91;79.92;100286.41;4934250;29;20154;-79
2021/01/19 08:49:11;;;;;;;14.77;5.55;;;;;;;2.95;80.19;100309.03;4936989;29;20044;-79
2021/01/19 08:51:46;;;;;;;9.80;5.10;;;;;;;2.98;78.97;100308.97;4914352;29;20051;-82
2021/01/19 08:54:13;;;;;;;10.27;5.18;;;;;;;2.92;80.45;100303.84;4933762;29;20032;-79
2021/01/19 08:56:42;;;;;;;12.70;5.93;;;;;;;2.86;81.22;100293.47;4930571;29;20056;-83
2021/01/19 08:59:11;;;;;;;10.63;5.35;;;;;;;2.80;81.84;100291.84;4928132;29;20075;-81
2021/01/19 09:01:48;;;;;;;11.35;5.57;;;;;;;2.74;82.28;100289.31;4926794;29;20055;-82
2021/01/19 09:04:29;;;;;;;12.55;5.88;;;;;;;2.68;82.13;100282.44;4922310;29;20056;-82
2021/01/19 09:07:05;;;;;;;13.00;6.22;;;;;;;2.69;82.91;100267.59;4923809;29;20110;-79
2021/01/19 09:09:33;;;;;;;14.85;6.00;;;;;;;2.57;83.40;100267.81;4922428;29;20044;-80
2021/01/19 09:12:00;;;;;;;15.77;7.22;;;;;;;2.47;84.04;100267.97;4921322;29;20044;-81
2021/01/19 09:14:27;;;;;;;11.10;6.28;;;;;;;2.42;85.01;100255.88;4932710;29;20048;-81
2021/01/19 09:16:56;;;;;;;14.82;6.50;;;;;;;2.43;85.46;100253.22;4925351;29;20052;-81
2021/01/19 09:19:23;;;;;;;19.15;7.57;;;;;;;2.44;85.11;100247.13;4923351;29;20056;-81
2021/01/19 09:21:50;;;;;;;10.55;5.90;;;;;;;2.39;85.58;100241.09;4914765;29;20048;-80
2021/01/19 09:24:21;;;;;;;14.02;6.45;;;;;;;2.38;85.65;100254.19;4913906;29;20078;-83
2021/01/19 09:27:02;;;;;;;11.38;6.32;;;;;;;2.29;86.14;100244.75;4911456;29;20080;-81
2021/01/19 09:29:34;;;;;;;15.63;6.40;;;;;;;2.22;86.19;100235.28;4930449;29;20071;-83
2021/01/19 09:32:01;;;;;;;11.75;6.32;;;;;;;2.15;87.23;100223.22;4930061;29;20084;-79
2021/01/19 09:34:35;;;;;;;11.48;5.78;;;;;;;2.10;87.42;100206.72;4931535;29;20080;-80
2021/01/19 09:37:08;;;;;;;10.93;5.65;;;;;;;2.05;87.17;100206.78;4934327;29;20039;-84
2021/01/19 09:39:36;;;;;;;11.15;5.88;;;;;;;1.99;87.67;100201.69;4916576;29;20056;-81
2021/01/19 09:42:06;;;;;;;12.07;5.93;;;;;;;1.94;88.41;100200.03;4912942;29;20087;-82
2021/01/19 09:44:35;;;;;;;13.43;5.63;;;;;;;1.96;88.87;100187.81;4932329;29;20060;-83
2021/01/19 09:47:08;;;;;;;17.65;6.72;;;;;;;1.96;89.16;100188.66;4895714;29;20059;-81
2021/01/19 09:49:36;;;;;;;13.15;6.03;;;;;;;2.01;88.54;100186.00;4929304;29;20071;-82
2021/01/19 09:52:13;;;;;;;13.38;5.65;;;;;;;2.06;87.70;100186.75;4924251;29;20056;-82
2021/01/19 09:54:40;;;;;;;13.27;5.97;;;;;;;2.07;87.95;100178.03;4906506;29;20483;-84
2021/01/19 09:57:08;;;;;;;12.57;5.28;;;;;;;2.05;87.64;100179.81;4926489;29;20044;-83
2021/01/19 09:59:38;;;;;;;8.90;5.35;;;;;;;2.07;87.76;100170.22;4916210;29;20060;-81
2021/01/19 10:02:04;;;;;;;11.68;5.20;;;;;;;2.08;88.16;100162.34;4906040;29;20123;-80
2021/01/19 10:04:31;;;;;;;9.65;5.22;;;;;;;2.14;87.44;100160.53;4909176;29;20064;-81
2021/01/19 10:07:09;;;;;;;16.83;5.25;;;;;;;2.21;87.21;100159.53;4927944;29;20051;-86
2021/01/19 10:09:49;;;;;;;;;;;;;;;2.27;87.36;100143.75;4910235;29;20801;-83
2021/01/19 10:12:27;;;;;;;13.68;4.72;;;;;;;2.28;86.66;100140.25;4926411;29;19943;-83
2021/01/19 10:14:55;;;;;;;13.90;5.43;;;;;;;2.32;86.97;100136.72;4924297;29;20052;-82
2021/01/19 10:17:33;;;;;;;10.82;4.85;;;;;;;2.39;86.76;100130.47;4913031;29;20060;-82
2021/01/19 10:20:09;;;;;;;9.13;5.20;;;;;;;2.47;85.84;100129.47;4929969;29;20056;-82
2021/01/19 10:22:48;;;;;;;12.73;4.97;;;;;;;2.52;86.21;100126.75;4931815;29;20052;-83
2021/01/19 10:25:37;;;;;;;15.88;4.50;;;;;;;2.57;85.90;100124.91;4906758;29;20048;-82
2021/01/19 10:28:10;;;;;;;8.40;4.72;;;;;;;2.56;85.69;100112.75;4930782;29;20048;-82
2021/01/19 10:30:52;;;;;;;13.35;5.07;;;;;;;2.51;87.04;100113.75;4938228;29;20539;-79
2021/01/19 10:33:27;;;;;;;10.02;4.72;;;;;;;2.51;87.03;100122.44;4924317;29;20508;-80
2021/01/19 10:36:05;;;;;;;13.70;5.18;;;;;;;2.50;86.06;100115.50;4929834;29;20051;-81
2021/01/19 10:38:37;;;;;;;12.75;4.78;;;;;;;2.50;86.36;100106.78;4940337;28;20059;-81
2021/01/19 10:41:04;;;;;;;9.48;4.88;;;;;;;2.52;87.07;100105.84;4938232;28;20047;-85
2021/01/19 10:43:32;;;;;;;15.20;5.15;;;;;;;2.51;86.86;100108.50;4922969;29;20182;-80
2021/01/19 10:45:58;;;;;;;17.67;5.72;;;;;;;2.50;86.71;100097.19;4935320;29;20052;-82
2021/01/19 10:48:27;;;;;;;12.68;5.30;;;;;;;2.46;87.33;100096.38;4931282;28;20046;-81
2021/01/19 10:50:54;;;;;;;11.23;5.82;;;;;;;2.36;87.81;100088.75;4937969;28;20052;-81
2021/01/19 10:53:31;;;;;;;13.90;5.60;;;;;;;2.34;88.95;100090.53;4918292;29;20044;-80
2021/01/19 10:55:58;;;;;;;14.00;5.90;;;;;;;2.28;89.32;100088.88;4928749;29;20123;-81
2021/01/19 10:58:28;;;;;;;14.33;5.73;;;;;;;2.28;89.93;100074.94;4917180;29;20051;-81
2021/01/19 11:01:06;;;;;;;15.20;6.18;;;;;;;2.29;89.87;100072.31;4948643;29;20503;-81
2021/01/19 11:03:33;;;;;;;13.65;5.55;;;;;;;2.32;90.39;100076.63;4914348;29;20058;-81
2021/01/19 11:05:59;;;;;;;14.75;5.97;;;;;;;2.28;90.24;100059.28;4914466;29;20048;-81
2021/01/19 11:08:28;;;;;;;14.20;5.97;;;;;;;2.24;90.56;100061.06;4928474;29;20048;-81
2021/01/19 11:10:54;;;;;;;13.98;6.20;;;;;;;2.22;90.92;100055.00;4931310;29;20039;-80
2021/01/19 11:13:29;;;;;;;13.00;5.80;;;;;;;2.17;91.50;100046.41;4933428;29;20063;-81
2021/01/19 11:15:58;;;;;;;18.00;5.88;;;;;;;2.08;91.48;100042.22;4934211;29;20078;-82
2021/01/19 11:18:24;;;;;;;19.45;6.35;;;;;;;2.12;91.81;100040.41;4938561;29;20044;-82
2021/01/19 11:20:51;;;;;;;17.63;7.22;;;;;;;2.11;92.57;100021.25;4930387;29;20138;-83
2021/01/19 11:23:17;;;;;;;20.42;7.68;;;;;;;2.13;92.96;100020.38;4933588;29;20066;-81
2021/01/19 11:25:45;;;;;;;18.58;6.40;;;;;;;2.23;92.38;100027.13;4929102;29;20052;-84
2021/01/19 11:28:13;;;;;;;15.98;5.97;;;;;;;2.28;91.99;100028.78;4922900;29;20052;-84
2021/01/19 11:30:40;;;;;;;20.10;7.15;;;;;;;2.32;93.13;100022.63;4930593;29;20048;-83
2021/01/19 11:33:07;;;;;;;17.30;6.53;;;;;;;2.28;93.72;100018.34;4936481;29;20415;-86
2021/01/19 11:35:35;;;;;;;11.02;5.75;;;;;;;2.34;92.95;100023.44;4918189;29;20059;-83
2021/01/19 11:38:03;;;;;;;14.32;5.30;;;;;;;2.44;92.49;100027.59;4932781;29;20116;-85
2021/01/19 11:40:31;;;;;;;14.20;5.32;;;;;;;2.52;92.47;100030.03;4929842;29;20040;-83
2021/01/19 11:43:02;;;;;;;17.35;5.85;;;;;;;2.52;93.04;100016.16;4937768;29;20076;-84
2021/01/19 11:45:33;;;;;;;13.40;4.90;;;;;;;2.59;92.75;100004.66;4928921;29;20048;-85
2021/01/19 11:47:59;;;;;;;11.52;5.15;;;;;;;2.64;93.25;100008.03;4929213;29;20056;-84